createdAt,value
2024-04-11T00:00:25.324Z,2.00
2024-04-11T00:01:25.900Z,2.07
2024-04-11T00:02:25.430Z,2.15
2024-04-11T00:03:25.446Z,2.20
2024-04-11T00:04:25.521Z,2.07
2024-04-11T00:05:25.324Z,2.12
2024-04-11T00:06:25.263Z,2.02
2024-04-11T00:07:25.245Z,2.20
2024-04-11T00:08:25.291Z,2.09
2024-04-11T00:09:25.223Z,2.05
2024-04-11T00:10:25.224Z,2.09
2024-04-11T00:11:25.358Z,1.98
2024-04-11T00:12:25.291Z,2.05
2024-04-11T00:13:25.181Z,2.18
2024-04-11T00:14:25.207Z,2.08
2024-04-11T00:15:25.189Z,2.09
2024-04-11T00:16:25.191Z,2.11
2024-04-11T00:17:25.295Z,2.08
2024-04-11T00:18:25.285Z,2.08
2024-04-11T00:19:25.136Z,2.07
2024-04-11T00:20:25.199Z,2.09
2024-04-11T00:21:25.113Z,2.02
2024-04-11T00:22:25.093Z,2.19
2024-04-11T00:23:25.135Z,2.15
2024-04-11T00:24:25.067Z,2.05
2024-04-11T00:25:25.054Z,2.02
2024-04-11T00:26:25.085Z,2.22
2024-04-11T00:27:25.037Z,2.09
2024-04-11T00:28:25.020Z,2.05
2024-04-11T00:29:25.086Z,2.07
2024-04-11T00:30:25.012Z,1.90
2024-04-11T00:31:25.000Z,2.02
2024-04-11T00:32:25.188Z,1.98
2024-04-11T00:33:25.141Z,2.08
2024-04-11T00:34:25.456Z,2.01
2024-04-11T00:35:25.078Z,2.05
2024-04-11T00:36:24.957Z,1.98
2024-04-11T00:37:24.922Z,2.00
2024-04-11T00:38:25.123Z,2.00
2024-04-11T00:39:24.899Z,2.00
2024-04-11T00:40:24.888Z,1.98
2024-04-11T00:41:24.960Z,2.05
2024-04-11T00:42:24.873Z,1.85
2024-04-11T00:43:24.889Z,2.01
2024-04-11T00:44:24.890Z,2.05
2024-04-11T00:45:24.840Z,2.12
2024-04-11T00:46:24.841Z,1.98
2024-04-11T00:47:25.061Z,1.92
2024-04-11T00:48:24.934Z,2.04
2024-04-11T00:49:24.951Z,2.01
2024-04-11T00:50:24.806Z,1.93
2024-04-11T00:51:24.804Z,1.90
2024-04-11T00:52:24.768Z,1.93
2024-04-11T00:53:24.831Z,1.92
2024-04-11T00:54:24.734Z,1.98
2024-04-11T00:55:24.723Z,1.77
2024-04-11T00:56:24.790Z,1.92
2024-04-11T00:57:24.700Z,1.92
2024-04-11T00:58:24.708Z,1.88
2024-04-11T00:59:24.764Z,2.09
2024-04-11T01:00:24.670Z,2.08
2024-04-11T01:01:24.663Z,2.20
2024-04-11T01:02:24.742Z,2.09
2024-04-11T01:03:24.706Z,2.08
2024-04-11T01:04:24.659Z,2.02
2024-04-11T01:05:24.697Z,2.04
2024-04-11T01:06:24.616Z,2.05
2024-04-11T01:07:24.629Z,1.90
2024-04-11T01:08:24.620Z,2.04
2024-04-11T01:09:46.635Z,2.00
2024-04-11T01:10:45.645Z,2.01
2024-04-11T01:11:24.652Z,2.19
2024-04-11T01:12:24.562Z,2.00
2024-04-11T01:13:24.530Z,2.08
2024-04-11T01:14:24.558Z,1.95
2024-04-11T01:15:24.610Z,2.05
2024-04-11T01:16:24.548Z,2.09
2024-04-11T01:17:24.640Z,2.04
2024-04-11T01:18:24.643Z,1.98
2024-04-11T01:19:24.474Z,2.05
2024-04-11T01:20:24.485Z,2.12
2024-04-11T01:21:24.457Z,2.04
2024-04-11T01:22:24.448Z,2.11
2024-04-11T01:23:24.520Z,2.02
2024-04-11T01:24:24.409Z,2.00
2024-04-11T01:25:24.418Z,2.01
2024-04-11T01:26:24.402Z,2.08
2024-04-11T01:27:24.388Z,2.08
2024-04-11T01:28:24.408Z,2.15
2024-04-11T01:29:24.418Z,1.95
2024-04-11T01:30:24.343Z,2.14
2024-04-11T01:31:24.338Z,2.05
2024-04-11T01:32:24.444Z,2.11
2024-04-11T01:33:24.475Z,2.04
2024-04-11T01:34:24.517Z,2.07
2024-04-11T01:35:24.335Z,2.19
2024-04-11T01:36:24.278Z,2.07
2024-04-11T01:37:24.271Z,2.22
2024-04-11T01:38:24.275Z,2.09
2024-04-11T01:39:24.278Z,2.08
2024-04-11T01:40:24.261Z,2.14
2024-04-11T01:41:24.262Z,2.11
2024-04-11T01:42:24.221Z,2.11
2024-04-11T01:43:24.205Z,2.09
2024-04-11T01:44:24.256Z,2.14
2024-04-11T01:45:24.186Z,2.12
2024-04-11T01:46:24.421Z,1.93
2024-04-11T01:47:24.217Z,2.00
2024-04-11T01:48:24.260Z,2.05
2024-04-11T01:49:24.138Z,2.02
2024-04-11T01:50:24.203Z,1.98
2024-04-11T01:51:24.118Z,2.05
2024-04-11T01:52:24.163Z,1.98
2024-04-11T01:53:24.120Z,1.95
2024-04-11T01:54:24.083Z,1.95
2024-04-11T01:55:24.092Z,2.05
2024-04-11T01:56:24.084Z,1.92
2024-04-11T01:57:24.060Z,1.95
2024-04-11T01:58:24.078Z,1.93
2024-04-11T01:59:24.060Z,2.01
2024-04-11T02:00:24.017Z,2.01
2024-04-11T02:01:24.059Z,2.12
2024-04-11T02:02:24.164Z,2.00
2024-04-11T02:03:24.114Z,2.08
2024-04-11T02:04:24.023Z,2.07
2024-04-11T02:05:24.014Z,2.01
2024-04-11T02:06:23.952Z,2.07
2024-04-11T02:07:23.954Z,2.01
2024-04-11T02:08:23.980Z,2.05
2024-04-11T02:09:23.919Z,2.02
2024-04-11T02:10:23.942Z,1.88
2024-04-11T02:11:24.014Z,1.98
2024-04-11T02:12:23.908Z,1.92
2024-04-11T02:13:23.891Z,1.86
2024-04-11T02:14:23.921Z,1.89
2024-04-11T02:15:23.861Z,2.07
2024-04-11T02:16:23.905Z,2.00
2024-04-11T02:17:23.857Z,1.86
2024-04-11T02:18:23.927Z,1.90
2024-04-11T02:19:23.826Z,1.92
2024-04-11T02:20:23.832Z,1.86
2024-04-11T02:21:23.793Z,1.93
2024-04-11T02:22:23.798Z,1.86
2024-04-11T02:23:23.800Z,1.93
2024-04-11T02:24:23.884Z,1.89
2024-04-11T02:25:23.748Z,1.83
2024-04-11T02:26:23.766Z,1.83
2024-04-11T02:27:23.761Z,1.82
2024-04-11T02:28:23.736Z,1.85
2024-04-11T02:29:23.726Z,1.92
2024-04-11T02:30:23.694Z,1.88
2024-04-11T02:31:23.696Z,1.92
2024-04-11T02:32:23.782Z,1.81
2024-04-11T02:33:23.878Z,1.82
2024-04-11T02:34:23.925Z,1.85
2024-04-11T02:35:23.702Z,1.82
2024-04-11T02:36:23.654Z,1.90
2024-04-11T02:37:23.629Z,1.81
2024-04-11T02:38:23.625Z,1.79
2024-04-11T02:39:23.593Z,1.71
2024-04-11T02:40:23.615Z,1.74
2024-04-11T02:41:23.682Z,1.81
2024-04-11T02:42:23.575Z,1.82
2024-04-11T02:43:23.589Z,1.88
2024-04-11T02:44:23.585Z,1.79
2024-04-11T02:45:23.543Z,1.86
2024-04-11T02:46:23.546Z,1.90
2024-04-11T02:47:23.642Z,1.75
2024-04-11T02:48:23.625Z,1.85
2024-04-11T02:49:23.530Z,1.90
2024-04-11T02:50:23.513Z,1.77
2024-04-11T02:51:23.481Z,1.83
2024-04-11T02:52:23.479Z,1.82
2024-04-11T02:53:23.483Z,1.82
2024-04-11T02:54:23.435Z,1.81
2024-04-11T02:55:23.425Z,1.75
2024-04-11T02:56:23.470Z,1.81
2024-04-11T02:57:23.404Z,1.85
2024-04-11T02:58:23.445Z,1.92
2024-04-11T02:59:23.421Z,1.82
2024-04-11T03:00:23.380Z,1.70
2024-04-11T03:01:23.361Z,1.83
2024-04-11T03:02:23.397Z,1.82
2024-04-11T03:03:23.528Z,1.68
2024-04-11T03:04:23.562Z,1.71
2024-04-11T03:05:23.373Z,1.77
2024-04-11T03:06:23.309Z,1.79
2024-04-11T03:07:23.308Z,1.71
2024-04-11T03:08:23.311Z,1.71
2024-04-11T03:09:23.440Z,1.81
2024-04-11T03:10:23.269Z,1.74
2024-04-11T03:11:23.285Z,1.65
2024-04-11T03:12:23.308Z,1.71
2024-04-11T03:13:23.228Z,1.68
2024-04-11T03:14:23.315Z,1.64
2024-04-11T03:15:23.250Z,1.64
2024-04-11T03:16:23.231Z,1.74
2024-04-11T03:17:23.265Z,1.61
2024-04-11T03:18:23.291Z,1.65
2024-04-11T03:19:23.164Z,1.65
2024-04-11T03:20:23.190Z,1.61
2024-04-11T03:21:23.176Z,1.61
2024-04-11T03:22:23.133Z,1.82
2024-04-11T03:23:23.131Z,1.83
2024-04-11T03:24:23.113Z,1.54
2024-04-11T03:25:23.100Z,1.53
2024-04-11T03:26:23.148Z,1.68
2024-04-11T03:27:23.109Z,1.53
2024-04-11T03:28:23.064Z,1.49
2024-04-11T03:29:23.118Z,1.56
2024-04-11T03:30:23.050Z,1.63
2024-04-11T03:31:23.043Z,1.67
2024-04-11T03:32:23.128Z,1.67
2024-04-11T03:33:23.145Z,1.57
2024-04-11T03:34:23.126Z,1.74
2024-04-11T03:35:23.070Z,1.61
2024-04-11T03:36:22.984Z,1.64
2024-04-11T03:37:22.971Z,1.67
2024-04-11T03:38:22.998Z,1.60
2024-04-11T03:39:23.035Z,1.53
2024-04-11T03:40:22.933Z,1.56
2024-04-11T03:41:23.069Z,1.57
2024-04-11T03:42:22.917Z,1.53
2024-04-11T03:43:22.918Z,1.60
2024-04-11T03:44:22.955Z,1.60
2024-04-11T03:45:22.975Z,1.67
2024-04-11T03:46:23.058Z,1.64
2024-04-11T03:47:23.278Z,1.57
2024-04-11T03:48:22.979Z,1.56
2024-04-11T03:49:22.867Z,1.53
2024-04-11T03:50:22.887Z,1.65
2024-04-11T03:51:22.841Z,1.52
2024-04-11T03:52:22.809Z,1.60
2024-04-11T03:53:22.820Z,1.54
2024-04-11T03:54:22.796Z,1.46
2024-04-11T03:55:22.808Z,1.54
2024-04-11T03:56:22.799Z,1.49
2024-04-11T03:57:22.830Z,1.56
2024-04-11T03:58:22.749Z,1.43
2024-04-11T03:59:22.772Z,1.57
2024-04-11T04:00:22.728Z,1.63
2024-04-11T04:01:22.769Z,1.53
2024-04-11T04:02:22.801Z,1.46
2024-04-11T04:03:22.931Z,1.70
2024-04-11T04:04:22.705Z,1.49
2024-04-11T04:05:22.708Z,1.50
2024-04-11T04:06:22.713Z,1.56
2024-04-11T04:07:22.645Z,1.44
2024-04-11T04:08:22.659Z,1.42
2024-04-11T04:09:22.681Z,1.42
2024-04-11T04:10:22.622Z,1.35
2024-04-11T04:11:22.657Z,1.28
2024-04-11T04:12:22.653Z,1.26
2024-04-11T04:13:22.585Z,1.46
2024-04-11T04:14:22.662Z,1.38
2024-04-11T04:15:22.613Z,1.29
2024-04-11T04:16:22.631Z,1.39
2024-04-11T04:17:22.614Z,1.24
2024-04-11T04:18:22.580Z,1.26
2024-04-11T04:19:22.531Z,1.31
2024-04-11T04:20:22.542Z,1.25
2024-04-11T04:21:22.648Z,1.18
2024-04-11T04:22:22.498Z,1.29
2024-04-11T04:23:22.503Z,1.17
2024-04-11T04:24:22.468Z,1.20
2024-04-11T04:25:22.461Z,1.17
2024-04-11T04:26:22.494Z,1.24
2024-04-11T04:27:22.465Z,1.13
2024-04-11T04:28:22.419Z,1.11
2024-04-11T04:29:22.442Z,1.13
2024-04-11T04:30:22.417Z,1.17
2024-04-11T04:31:22.403Z,1.13
2024-04-11T04:32:22.503Z,1.16
2024-04-11T04:33:22.504Z,1.08
2024-04-11T04:34:22.528Z,0.93
2024-04-11T04:35:22.414Z,1.04
2024-04-11T04:36:22.349Z,0.89
2024-04-11T04:37:22.324Z,1.08
2024-04-11T04:38:22.335Z,0.98
2024-04-11T04:39:22.352Z,0.96
2024-04-11T04:40:22.288Z,1.02
2024-04-11T04:41:22.361Z,1.04
2024-04-11T04:42:22.308Z,0.96
2024-04-11T04:43:22.261Z,0.96
2024-04-11T04:44:22.334Z,0.95
2024-04-11T04:45:22.266Z,0.93
2024-04-11T04:46:22.227Z,0.93
2024-04-11T04:47:22.282Z,1.06
2024-04-11T04:48:22.409Z,0.93
2024-04-11T04:49:22.432Z,0.93
2024-04-11T04:50:22.229Z,1.02
2024-04-11T04:51:22.227Z,0.95
2024-04-11T04:52:22.162Z,1.02
2024-04-11T04:53:22.268Z,0.98
2024-04-11T04:54:22.161Z,0.96
2024-04-11T04:55:22.132Z,1.00
2024-04-11T04:56:22.200Z,0.98
2024-04-11T04:57:22.109Z,0.96
2024-04-11T04:58:22.114Z,0.95
2024-04-11T04:59:22.084Z,1.07
2024-04-11T05:00:22.074Z,0.98
2024-04-11T05:01:22.079Z,0.89
2024-04-11T05:02:22.216Z,0.89
2024-04-11T05:03:22.303Z,0.93
2024-04-11T05:04:22.145Z,1.02
2024-04-11T05:05:22.090Z,1.16
2024-04-11T05:06:22.012Z,1.04
2024-04-11T05:07:22.026Z,0.95
2024-04-11T05:08:22.039Z,0.95
2024-04-11T05:09:21.984Z,1.07
2024-04-11T05:10:21.976Z,0.98
2024-04-11T05:11:22.049Z,1.02
2024-04-11T05:12:22.047Z,0.95
2024-04-11T05:13:21.954Z,0.96
2024-04-11T05:14:21.987Z,1.02
2024-04-11T05:15:21.917Z,1.07
2024-04-11T05:16:22.455Z,1.11
2024-04-11T05:17:22.118Z,1.10
2024-04-11T05:18:22.109Z,1.10
2024-04-11T05:19:21.875Z,1.13
2024-04-11T05:20:24.301Z,1.20
2024-04-11T05:21:22.040Z,1.16
2024-04-11T05:22:21.841Z,1.13
2024-04-11T05:23:21.917Z,1.14
2024-04-11T05:24:21.846Z,1.20
2024-04-11T05:25:21.819Z,1.18
2024-04-11T05:26:21.844Z,1.16
2024-04-11T05:27:21.868Z,1.17
2024-04-11T05:28:21.782Z,1.21
2024-04-11T05:29:21.783Z,1.20
2024-04-11T05:30:21.825Z,1.14
2024-04-11T05:31:21.828Z,1.17
2024-04-11T05:32:21.834Z,1.26
2024-04-11T05:33:21.875Z,1.35
2024-04-11T05:34:22.152Z,1.35
2024-04-11T05:35:21.749Z,1.42
2024-04-11T05:36:21.791Z,1.65
2024-04-11T05:37:21.691Z,1.89
2024-04-11T05:38:21.770Z,2.23
2024-04-11T05:39:21.984Z,2.47
2024-04-11T05:40:21.666Z,2.63
2024-04-11T05:41:21.747Z,2.86
2024-04-11T05:42:21.749Z,2.99
2024-04-11T05:43:29.075Z,2.97
2024-04-11T05:44:22.634Z,3.25
2024-04-11T05:45:21.593Z,3.25
2024-04-11T05:46:21.599Z,3.39
2024-04-11T05:47:21.711Z,3.41
2024-04-11T05:48:21.667Z,3.72
2024-04-11T05:49:21.693Z,3.77
2024-04-11T05:50:21.607Z,3.95
2024-04-11T05:51:21.524Z,3.93
2024-04-11T05:52:21.536Z,3.78
2024-04-11T05:53:21.595Z,3.59
2024-04-11T05:54:22.045Z,3.50
2024-04-11T05:55:21.497Z,3.45
2024-04-11T05:56:21.504Z,3.57
2024-04-11T05:57:21.466Z,3.70
2024-04-11T05:58:21.459Z,3.78
2024-04-11T05:59:21.521Z,3.81
2024-04-11T06:00:21.432Z,3.98
2024-04-11T06:01:21.524Z,4.20
2024-04-11T06:02:21.520Z,4.16
2024-04-11T06:03:21.569Z,4.34
2024-04-11T06:04:21.412Z,4.39
2024-04-11T06:05:21.397Z,4.65
2024-04-11T06:06:21.483Z,4.59
2024-04-11T06:07:21.353Z,4.57
2024-04-11T06:08:21.418Z,4.57
2024-04-11T06:09:21.337Z,4.56
2024-04-11T06:10:21.338Z,4.35
2024-04-11T06:11:21.464Z,4.43
2024-04-11T06:12:21.399Z,4.39
2024-04-11T06:13:21.353Z,4.28
2024-04-11T06:14:21.458Z,4.32
2024-04-11T06:15:21.270Z,4.56
2024-04-11T06:16:21.302Z,4.34
2024-04-11T06:17:21.257Z,4.50
2024-04-11T06:18:21.355Z,4.71
2024-04-11T06:19:21.234Z,4.61
2024-04-11T06:20:21.359Z,4.69
2024-04-11T06:21:21.248Z,4.77
2024-04-11T06:22:21.191Z,4.99
2024-04-11T06:23:21.315Z,5.12
2024-04-11T06:24:21.227Z,5.17
2024-04-11T06:25:21.189Z,5.38
2024-04-11T06:26:21.223Z,5.45
2024-04-11T06:27:21.141Z,5.60
2024-04-11T06:28:21.121Z,5.41
2024-04-11T06:29:21.245Z,5.01
2024-04-11T06:30:21.206Z,5.05
2024-04-11T06:31:21.105Z,5.01
2024-04-11T06:32:21.182Z,4.74
2024-04-11T06:33:21.252Z,4.75
2024-04-11T06:34:21.316Z,4.72
2024-04-11T06:35:21.118Z,4.71
2024-04-11T06:36:21.037Z,5.01
2024-04-11T06:37:21.029Z,5.27
2024-04-11T06:38:21.060Z,5.40
2024-04-11T06:39:21.051Z,5.44
2024-04-11T06:40:20.995Z,5.65
2024-04-11T06:41:21.104Z,5.63
2024-04-11T06:42:20.985Z,5.75
2024-04-11T06:43:20.971Z,5.93
2024-04-11T06:44:21.105Z,5.92
2024-04-11T06:45:20.974Z,5.99
2024-04-11T06:46:20.954Z,6.24
2024-04-11T06:47:27.903Z,6.19
2024-04-11T06:48:22.119Z,6.32
2024-04-11T06:49:21.022Z,5.93
2024-04-11T06:50:20.952Z,6.35
2024-04-11T06:51:20.955Z,6.32
2024-04-11T06:52:21.588Z,6.24
2024-04-11T06:53:20.857Z,6.08
2024-04-11T06:54:20.841Z,6.19
2024-04-11T06:55:20.842Z,6.10
2024-04-11T06:56:20.891Z,6.20
2024-04-11T06:57:20.804Z,6.11
2024-04-11T06:58:20.811Z,6.11
2024-04-11T06:59:20.900Z,6.30
2024-04-11T07:00:20.776Z,6.24
2024-04-11T07:02:20.951Z,6.16
2024-04-11T07:03:20.793Z,6.06
2024-04-11T07:04:20.748Z,6.02
2024-04-11T07:05:20.840Z,6.11
2024-04-11T07:06:20.709Z,6.36
2024-04-11T07:07:20.696Z,6.38
2024-04-11T07:08:20.734Z,6.46
2024-04-11T07:09:20.671Z,6.19
2024-04-11T07:10:20.679Z,6.50
2024-04-11T07:11:21.678Z,6.19
2024-04-11T07:12:20.641Z,6.61
2024-04-11T07:13:20.628Z,6.68
2024-04-11T07:14:20.645Z,6.64
2024-04-11T07:15:20.630Z,6.73
2024-04-11T07:16:20.613Z,6.64
2024-04-11T07:17:20.620Z,6.81
2024-04-11T07:18:20.702Z,6.89
2024-04-11T07:19:20.568Z,6.72
2024-04-11T07:20:20.580Z,7.00
2024-04-11T07:21:20.540Z,6.68
2024-04-11T07:22:20.536Z,6.81
2024-04-11T07:23:20.529Z,6.81
2024-04-11T07:24:20.521Z,6.63
2024-04-11T07:25:20.507Z,6.82
2024-04-11T07:26:20.530Z,6.71
2024-04-11T07:27:20.635Z,6.82
2024-04-11T07:28:20.463Z,6.97
2024-04-11T07:29:20.451Z,7.26
2024-04-11T07:30:20.445Z,7.08
2024-04-11T07:31:20.457Z,7.00
2024-04-11T07:32:20.484Z,6.99
2024-04-11T07:33:20.699Z,7.11
2024-04-11T07:34:20.402Z,7.23
2024-04-11T07:35:20.401Z,7.16
2024-04-11T07:36:20.393Z,7.27
2024-04-11T07:37:20.403Z,7.42
2024-04-11T07:38:20.408Z,7.66
2024-04-11T07:39:20.343Z,7.58
2024-04-11T07:40:20.353Z,7.66
2024-04-11T07:41:20.392Z,7.45
2024-04-11T07:42:20.579Z,7.66
2024-04-11T07:43:20.299Z,7.69
2024-04-11T07:44:20.440Z,7.73
2024-04-11T07:45:20.277Z,7.84
2024-04-11T07:46:20.355Z,7.81
2024-04-11T07:47:24.106Z,7.63
2024-04-11T07:48:21.305Z,7.58
2024-04-11T07:49:20.315Z,7.47
2024-04-11T07:50:20.325Z,7.71
2024-04-11T07:51:20.269Z,7.76
2024-04-11T07:52:20.285Z,7.69
2024-04-11T07:53:20.508Z,7.58
2024-04-11T07:54:26.087Z,7.32
2024-04-11T07:55:21.171Z,7.62
2024-04-11T07:56:20.185Z,7.66
2024-04-11T07:57:20.157Z,7.58
2024-04-11T07:58:20.155Z,7.66
2024-04-11T07:59:20.149Z,7.92
2024-04-11T08:00:20.970Z,7.71
2024-04-11T08:01:20.125Z,7.86
2024-04-11T08:02:20.560Z,8.02
2024-04-11T08:03:20.096Z,8.06
2024-04-11T08:04:20.155Z,8.04
2024-04-11T08:05:20.082Z,8.04
2024-04-11T08:06:23.084Z,8.18
2024-04-11T08:07:20.038Z,8.07
2024-04-11T08:08:20.061Z,8.07
2024-04-11T08:09:20.024Z,8.13
2024-04-11T08:10:20.023Z,8.00
2024-04-11T08:11:20.101Z,8.21
2024-04-11T08:12:19.983Z,8.28
2024-04-11T08:13:19.987Z,8.22
2024-04-11T08:14:19.978Z,8.06
2024-04-11T08:15:19.968Z,8.09
2024-04-11T08:16:19.940Z,8.06
2024-04-11T08:17:19.929Z,8.52
2024-04-11T08:18:20.042Z,8.28
2024-04-11T08:19:19.916Z,8.50
2024-04-11T08:20:19.911Z,8.34
2024-04-11T08:21:19.882Z,8.24
2024-04-11T08:22:19.875Z,8.13
2024-04-11T08:23:21.887Z,8.10
2024-04-11T08:24:19.864Z,7.99
2024-04-11T08:25:19.839Z,7.99
2024-04-11T08:26:19.850Z,8.42
2024-04-11T08:27:21.721Z,8.21
2024-04-11T08:28:19.808Z,8.04
2024-04-11T08:29:19.793Z,8.10
2024-04-11T08:30:19.823Z,8.21
2024-04-11T08:31:19.769Z,8.64
2024-04-11T08:32:19.785Z,8.45
2024-04-11T08:33:19.865Z,8.52
2024-04-11T08:34:19.784Z,8.28
2024-04-11T08:35:19.759Z,8.42
2024-04-11T08:36:19.733Z,8.43
2024-04-11T08:37:19.703Z,8.63
2024-04-11T08:38:19.724Z,8.97
2024-04-11T08:39:19.681Z,8.82
2024-04-11T08:40:19.681Z,9.10
2024-04-11T08:41:19.678Z,8.96
2024-04-11T08:42:19.655Z,9.32
2024-04-11T08:43:19.647Z,9.31
2024-04-11T08:44:19.671Z,9.32
2024-04-11T08:45:19.625Z,9.08
2024-04-11T08:46:19.629Z,9.06
2024-04-11T08:47:19.657Z,9.00
2024-04-11T08:48:19.746Z,9.12
2024-04-11T08:49:19.713Z,9.31
2024-04-11T08:50:19.806Z,9.50
2024-04-11T08:51:19.688Z,9.49
2024-04-11T08:52:19.561Z,9.59
2024-04-11T08:53:19.531Z,9.78
2024-04-11T08:54:19.573Z,9.58
2024-04-11T08:55:19.504Z,9.42
2024-04-11T08:56:19.519Z,9.40
2024-04-11T08:57:19.502Z,9.75
2024-04-11T08:58:19.472Z,10.14
2024-04-11T08:59:19.478Z,10.13
2024-04-11T09:00:19.485Z,9.99
2024-04-11T09:01:19.495Z,9.83
2024-04-11T09:02:19.524Z,9.86
2024-04-11T09:03:19.541Z,9.98
2024-04-11T09:04:19.762Z,9.91
2024-04-11T09:05:19.420Z,9.74
2024-04-11T09:06:19.423Z,9.70
2024-04-11T09:07:20.486Z,9.62
2024-04-11T09:08:19.375Z,9.73
2024-04-11T09:09:19.371Z,9.89
2024-04-11T09:10:19.347Z,9.75
2024-04-11T09:11:19.353Z,9.88
2024-04-11T09:12:19.375Z,9.85
2024-04-11T09:13:19.305Z,9.98
2024-04-11T09:14:19.327Z,10.14
2024-04-11T09:15:19.284Z,10.16
2024-04-11T09:16:19.344Z,10.02
2024-04-11T09:17:22.030Z,10.32
2024-04-11T09:18:19.466Z,10.72
2024-04-11T09:19:19.248Z,11.03
2024-04-11T09:20:19.254Z,10.75
2024-04-11T09:21:19.222Z,10.70
2024-04-11T09:22:19.212Z,10.39
2024-04-11T09:23:19.226Z,10.55
2024-04-11T09:24:19.639Z,10.68
2024-04-11T09:25:19.237Z,10.44
2024-04-11T09:26:19.201Z,10.22
2024-04-11T09:27:19.168Z,9.95
2024-04-11T09:28:19.148Z,10.16
2024-04-11T09:29:22.159Z,10.52
2024-04-11T09:30:19.127Z,10.09
2024-04-11T09:31:19.114Z,10.14
2024-04-11T09:32:19.140Z,10.46
2024-04-11T09:33:19.329Z,10.47
2024-04-11T09:34:19.112Z,10.39
2024-04-11T09:35:19.073Z,10.51
2024-04-11T09:36:19.081Z,10.58
2024-04-11T09:37:19.049Z,10.55
2024-04-11T09:38:19.058Z,10.52
2024-04-11T09:39:19.048Z,10.87
2024-04-11T09:40:19.039Z,10.81
2024-04-11T09:41:20.166Z,10.80
2024-04-11T09:42:19.005Z,10.73
2024-04-11T09:43:18.985Z,10.70
2024-04-11T09:44:19.018Z,10.91
2024-04-11T09:45:18.966Z,11.05
2024-04-11T09:46:18.946Z,11.12
2024-04-11T09:47:18.983Z,11.31
2024-04-11T09:48:18.999Z,11.27
2024-04-11T09:49:18.940Z,11.03
2024-04-11T09:50:18.937Z,11.12
2024-04-11T09:51:18.901Z,11.30
2024-04-11T09:52:18.887Z,11.57
2024-04-11T09:53:18.880Z,11.35
2024-04-11T09:54:18.867Z,11.06
2024-04-11T09:55:18.886Z,10.99
2024-04-11T09:56:18.883Z,11.39
2024-04-11T09:57:18.826Z,11.57
2024-04-11T09:58:18.826Z,11.44
2024-04-11T09:59:18.802Z,11.33
2024-04-11T10:00:18.805Z,11.12
2024-04-11T10:01:18.783Z,11.16
2024-04-11T10:02:18.810Z,11.13
2024-04-11T10:03:18.973Z,11.41
2024-04-11T10:04:18.798Z,11.66
2024-04-11T10:05:18.750Z,11.66
2024-04-11T10:06:18.736Z,11.97
2024-04-11T10:07:18.724Z,11.75
2024-04-11T10:08:18.855Z,11.85
2024-04-11T10:09:18.702Z,11.49
2024-04-11T10:10:18.700Z,11.36
2024-04-11T10:11:18.985Z,11.63
2024-04-11T10:12:18.692Z,11.38
2024-04-11T10:13:18.644Z,11.90
2024-04-11T10:14:18.658Z,11.67
2024-04-11T10:15:18.682Z,11.82
2024-04-11T10:16:18.631Z,11.67
2024-04-11T10:17:18.734Z,12.12
2024-04-11T10:18:19.332Z,11.94
2024-04-11T10:19:19.028Z,11.70
2024-04-11T10:20:18.607Z,11.94
2024-04-11T10:21:18.558Z,12.04
2024-04-11T10:22:18.546Z,11.84
2024-04-11T10:23:18.538Z,11.85
2024-04-11T10:24:18.541Z,11.81
2024-04-11T10:25:18.599Z,11.78
2024-04-11T10:26:18.527Z,11.82
2024-04-11T10:27:18.578Z,12.00
2024-04-11T10:28:18.482Z,11.77
2024-04-11T10:29:18.484Z,11.78
2024-04-11T10:30:18.552Z,11.51
2024-04-11T10:31:18.447Z,11.54
2024-04-11T10:32:18.486Z,12.05
2024-04-11T10:33:18.499Z,11.82
2024-04-11T10:34:18.429Z,11.77
2024-04-11T10:35:18.464Z,11.85
2024-04-11T10:36:18.392Z,12.07
2024-04-11T10:37:18.378Z,12.00
2024-04-11T10:38:18.385Z,12.00
2024-04-11T10:39:18.372Z,12.03
2024-04-11T10:40:18.358Z,12.21
2024-04-11T10:41:18.337Z,11.93
2024-04-11T10:42:18.338Z,12.00
2024-04-11T10:43:18.330Z,12.40
2024-04-11T10:44:18.319Z,12.07
2024-04-11T10:45:18.413Z,11.90
2024-04-11T10:46:18.340Z,11.97
2024-04-11T10:47:18.271Z,12.37
2024-04-11T10:48:18.359Z,12.61
2024-04-11T10:49:18.247Z,12.56
2024-04-11T10:50:18.272Z,12.63
2024-04-11T10:51:18.220Z,12.56
2024-04-11T10:52:18.217Z,12.81
2024-04-11T10:53:19.311Z,12.63
2024-04-11T10:54:18.206Z,12.49
2024-04-11T10:55:18.182Z,12.62
2024-04-11T10:56:18.220Z,12.91
2024-04-11T10:57:18.158Z,12.81
2024-04-11T10:58:18.160Z,12.70
2024-04-11T10:59:18.159Z,12.74
2024-04-11T11:00:18.138Z,12.79
2024-04-11T11:01:18.148Z,12.79
2024-04-11T11:02:18.137Z,12.79
2024-04-11T11:03:18.209Z,12.94
2024-04-11T11:04:18.120Z,13.12
2024-04-11T11:05:18.085Z,13.14
2024-04-11T11:06:18.064Z,13.12
2024-04-11T11:07:18.049Z,13.43
2024-04-11T11:08:18.076Z,13.59
2024-04-11T11:09:18.039Z,13.84
2024-04-11T11:10:18.080Z,13.72
2024-04-11T11:11:18.029Z,13.39
2024-04-11T11:12:18.295Z,13.07
2024-04-11T11:13:18.015Z,13.04
2024-04-11T11:14:18.016Z,13.16
2024-04-11T11:15:17.968Z,13.19
2024-04-11T11:16:18.029Z,13.10
2024-04-11T11:17:17.942Z,12.91
2024-04-11T11:18:18.002Z,13.03
2024-04-11T11:19:17.944Z,13.65
2024-04-11T11:20:17.929Z,13.50
2024-04-11T11:21:17.915Z,13.09
2024-04-11T11:22:17.887Z,13.46
2024-04-11T11:23:17.882Z,13.43
2024-04-11T11:24:17.909Z,13.53
2024-04-11T11:25:17.868Z,13.90
2024-04-11T11:26:17.858Z,14.24
2024-04-11T11:27:17.829Z,13.94
2024-04-11T11:28:17.822Z,13.68
2024-04-11T11:29:17.832Z,13.41
2024-04-11T11:30:18.396Z,13.25
2024-04-11T11:31:17.808Z,13.36
2024-04-11T11:32:17.799Z,13.41
2024-04-11T11:33:17.861Z,13.63
2024-04-11T11:34:17.878Z,13.83
2024-04-11T11:35:17.843Z,13.98
2024-04-11T11:36:17.742Z,13.68
2024-04-11T11:37:17.743Z,13.27
2024-04-11T11:38:17.729Z,13.35
2024-04-11T11:39:17.701Z,13.51
2024-04-11T11:40:17.691Z,13.76
2024-04-11T11:41:17.685Z,13.76
2024-04-11T11:42:19.580Z,14.06
2024-04-11T11:43:17.818Z,14.12
2024-04-11T11:44:17.674Z,13.88
2024-04-11T11:45:17.738Z,13.68
2024-04-11T11:46:17.689Z,13.94
2024-04-11T11:47:17.727Z,13.87
2024-04-11T11:48:17.685Z,13.61
2024-04-11T11:49:17.591Z,13.81
2024-04-11T11:50:17.615Z,14.02
2024-04-11T11:51:17.566Z,14.12
2024-04-11T11:52:17.570Z,14.13
2024-04-11T11:53:17.546Z,14.21
2024-04-11T11:54:17.531Z,14.27
2024-04-11T11:55:17.530Z,14.26
2024-04-11T11:56:17.544Z,14.29
2024-04-11T11:57:17.503Z,14.24
2024-04-11T11:58:17.491Z,14.05
2024-04-11T11:59:17.490Z,13.93
2024-04-11T12:00:17.477Z,13.72
2024-04-11T12:01:17.494Z,14.06
2024-04-11T12:02:17.534Z,14.34
2024-04-11T12:03:24.417Z,14.41
2024-04-11T12:04:18.505Z,14.74
2024-04-11T12:05:17.413Z,14.59
2024-04-11T12:06:17.411Z,14.36
2024-04-11T12:07:17.390Z,14.39
2024-04-11T12:08:17.396Z,14.05
2024-04-11T12:09:17.363Z,14.30
2024-04-11T12:10:17.368Z,14.46
2024-04-11T12:11:17.436Z,14.26
2024-04-11T12:12:17.354Z,13.86
2024-04-11T12:13:17.330Z,14.05
2024-04-11T12:14:17.342Z,14.16
2024-04-11T12:15:17.299Z,14.19
2024-04-11T12:16:18.201Z,13.69
2024-04-11T12:17:17.274Z,13.63
2024-04-11T12:18:17.437Z,13.72
2024-04-11T12:19:17.286Z,14.06
2024-04-11T12:20:17.285Z,14.05
2024-04-11T12:21:17.249Z,14.13
2024-04-11T12:22:17.229Z,14.17
2024-04-11T12:23:17.219Z,14.20
2024-04-11T12:24:17.215Z,14.12
2024-04-11T12:25:17.195Z,14.44
2024-04-11T12:26:17.240Z,14.63
2024-04-11T12:27:17.176Z,14.53
2024-04-11T12:28:17.160Z,14.63
2024-04-11T12:29:17.148Z,14.26
2024-04-11T12:30:17.134Z,14.20
2024-04-11T12:31:17.182Z,14.09
2024-04-11T12:32:17.170Z,14.20
2024-04-11T12:33:17.212Z,14.19
2024-04-11T12:34:17.145Z,14.26
2024-04-11T12:35:17.093Z,14.01
2024-04-11T12:36:17.093Z,14.17
2024-04-11T12:37:17.073Z,14.44
2024-04-11T12:38:17.065Z,14.60
2024-04-11T12:39:17.057Z,14.71
2024-04-11T12:40:18.585Z,14.74
2024-04-11T12:41:17.014Z,14.56
2024-04-11T12:42:17.016Z,14.49
2024-04-11T12:43:16.986Z,14.26
2024-04-11T12:44:16.990Z,14.29
2024-04-11T12:45:16.989Z,14.12
2024-04-11T12:46:16.958Z,14.39
2024-04-11T12:47:17.000Z,14.57
2024-04-11T12:48:17.015Z,14.72
2024-04-11T12:49:16.951Z,14.64
2024-04-11T12:50:16.933Z,14.60
2024-04-11T12:51:16.903Z,15.03
2024-04-11T12:52:16.905Z,15.11
2024-04-11T12:53:16.873Z,14.83
2024-04-11T12:54:16.870Z,15.05
2024-04-11T12:55:16.921Z,15.04
2024-04-11T12:56:16.865Z,14.69
2024-04-11T12:57:16.832Z,15.03
2024-04-11T12:58:16.820Z,15.40
2024-04-11T12:59:16.820Z,15.38
2024-04-11T13:00:16.826Z,15.53
2024-04-11T13:01:16.813Z,15.44
2024-04-11T13:02:16.820Z,15.56
2024-04-11T13:03:16.919Z,15.53
2024-04-11T13:04:16.754Z,15.40
2024-04-11T13:05:16.768Z,15.40
2024-04-11T13:06:16.740Z,15.27
2024-04-11T13:07:16.744Z,15.64
2024-04-11T13:08:25.353Z,15.81
2024-04-11T13:09:17.713Z,15.58
2024-04-11T13:10:16.728Z,15.35
2024-04-11T13:11:16.725Z,15.33